Robbinston, Maine
Current Conditions -  °F | °C
As of 9:00 PM on Monday 22 Dec 2014 (Local Time) from CYFC Reporting Station
Overcast Overcast  
Wind Chill: 27°   Ceiling: 4600
Heat Index: 27°   Visibility: 9mi
Dew Point: 25°   Wind: 3mph
Humidity: 93%   Direction: 40°NE
Pressure: 30.46"   Gusts: NA
Location:  45.08°N, 67.11°W
Report Text: CYFC 230200Z AUTO 04003KT 9SM OVC046 M03/M04 A3046 RMK SLP315
Loading
Personal Weather Stations






























Interactive Weather Map New forecast layout! Learn more

10-Day Weather Forecast

Advertisements
Track Severe Weather on mobile